Time;durP1;ratioP1;P1;durP2;ratioP2;P2;SDS_P1;SDS_P2;PMS_P1;PMS_P2;Temp;Humidity;BMP_temperature;BMP_pressure;BME280_temperature;BME280_humidity;BME280_pressure;Samples;Min_cycle;Max_cycle;Signal;HPM_P1;HPM_P2
2021/03/18 00:00:47;;;;;;;6.05;3.17;;;;;;;;;;5070160;28;20741;-86
2021/03/18 00:03:17;;;;;;;5.65;3.33;;;;;;;;;;5070216;28;20538;-86
2021/03/18 00:05:43;;;;;;;5.93;3.28;;;;;;;;;;5079927;28;20443;-86
2021/03/18 00:08:09;;;;;;;5.82;3.47;;;;;;;;;;5099275;28;20414;-85
2021/03/18 00:10:35;;;;;;;8.30;3.38;;;;;;;;;;5087026;28;20403;-86
2021/03/18 00:13:01;;;;;;;10.57;3.85;;;;;;;;;;5104532;28;20900;-86
2021/03/18 00:15:29;;;;;;;14.80;5.07;;;;;;;;;;5079340;28;20821;-86
2021/03/18 00:17:55;;;;;;;5.78;3.08;;;;;;;;;;5087418;28;20773;-85
2021/03/18 00:20:20;;;;;;;7.40;3.57;;;;;;;;;;5070331;28;20445;-86
2021/03/18 00:22:46;;;;;;;7.07;3.03;;;;;;;;;;5100510;28;20407;-86
2021/03/18 00:25:16;;;;;;;10.27;3.80;;;;;;;;;;5094629;28;20427;-86
2021/03/18 00:27:42;;;;;;;8.47;3.23;;;;;;;;;;5088582;28;20422;-86
2021/03/18 00:30:08;;;;;;;5.68;3.45;;;;;;;;;;5071159;28;20415;-86
2021/03/18 00:32:35;;;;;;;5.78;3.70;;;;;;;;;;5076378;28;20400;-86
2021/03/18 00:35:01;;;;;;;8.50;3.17;;;;;;;;;;5088014;28;20403;-86
2021/03/18 00:37:27;;;;;;;10.38;3.67;;;;;;;;;;5087014;28;20887;-86
2021/03/18 00:39:56;;;;;;;6.53;2.95;;;;;;;;;;5088829;28;20423;-85
2021/03/18 00:42:22;;;;;;;5.15;3.05;;;;;;;;;;5102123;28;20479;-85
2021/03/18 00:44:49;;;;;;;7.65;3.47;;;;;;;;;;5063623;28;20405;-85
2021/03/18 00:47:15;;;;;;;7.77;3.33;;;;;;;;;;5062252;28;20767;-86
2021/03/18 00:49:41;;;;;;;8.13;3.83;;;;;;;;;;5091993;28;20888;-86
2021/03/18 00:52:07;;;;;;;6.88;3.03;;;;;;;;;;5104749;28;20411;-85
2021/03/18 00:54:33;;;;;;;7.47;3.40;;;;;;;;;;5077572;28;20906;-85
2021/03/18 00:56:59;;;;;;;7.68;3.15;;;;;;;;;;5089535;28;20402;-86
2021/03/18 00:59:25;;;;;;;9.13;3.83;;;;;;;;;;5090526;28;20404;-86
2021/03/18 01:01:50;;;;;;;6.50;3.67;;;;;;;;;;5091480;28;20431;-85
2021/03/18 01:04:16;;;;;;;9.43;4.40;;;;;;;;;;5076692;28;20403;-86
2021/03/18 01:06:42;;;;;;;10.00;3.83;;;;;;;;;;5101400;28;20441;-86
2021/03/18 01:09:08;;;;;;;9.15;3.90;;;;;;;;;;5074903;28;20463;-86
2021/03/18 01:11:36;;;;;;;7.93;4.47;;;;;;;;;;5083134;28;20406;-85
2021/03/18 01:14:12;;;;;;;7.67;3.97;;;;;;;;;;5070676;28;20761;-85
2021/03/18 01:16:44;;;;;;;8.37;3.90;;;;;;;;;;5068762;28;20475;-86
2021/03/18 01:19:10;;;;;;;9.15;3.78;;;;;;;;;;5090449;28;20883;-86
2021/03/18 01:21:43;;;;;;;7.90;4.18;;;;;;;;;;5074125;28;20410;-85
2021/03/18 01:24:09;;;;;;;9.88;4.95;;;;;;;;;;5072689;28;20423;-86
2021/03/18 01:26:35;;;;;;;7.35;4.60;;;;;;;;;;5094403;28;20403;-86
2021/03/18 01:29:01;;;;;;;9.35;5.25;;;;;;;;;;5101334;28;20751;-85
2021/03/18 01:31:27;;;;;;;7.27;4.43;;;;;;;;;;5067786;28;20395;-86
2021/03/18 01:33:53;;;;;;;7.78;4.28;;;;;;;;;;5081719;28;20403;-85
2021/03/18 01:36:19;;;;;;;7.70;3.83;;;;;;;;;;5075106;28;20495;-86
2021/03/18 01:38:45;;;;;;;7.23;3.73;;;;;;;;;;5087583;28;20483;-85
2021/03/18 01:41:11;;;;;;;11.45;3.85;;;;;;;;;;5073867;28;20408;-85
2021/03/18 01:43:37;;;;;;;7.60;3.70;;;;;;;;;;5060217;28;20408;-85
2021/03/18 01:46:04;;;;;;;9.75;3.75;;;;;;;;;;5084941;28;20748;-86
2021/03/18 01:48:29;;;;;;;6.35;3.45;;;;;;;;;;5083830;28;21034;-86
2021/03/18 01:50:56;;;;;;;10.18;3.70;;;;;;;;;;5068404;28;20473;-85
2021/03/18 01:53:22;;;;;;;8.45;3.88;;;;;;;;;;5086993;28;20788;-85
2021/03/18 01:55:49;;;;;;;12.68;3.97;;;;;;;;;;5096511;28;20400;-85
2021/03/18 01:58:15;;;;;;;9.07;4.15;;;;;;;;;;5072608;28;20473;-86
2021/03/18 02:00:41;;;;;;;9.07;3.43;;;;;;;;;;5072345;28;20390;-85
2021/03/18 02:03:07;;;;;;;9.48;3.60;;;;;;;;;;5096454;28;20929;-85
2021/03/18 02:05:33;;;;;;;4.28;3.00;;;;;;;;;;5079517;28;20400;-86
2021/03/18 02:07:59;;;;;;;7.68;3.50;;;;;;;;;;5093011;28;20414;-85
2021/03/18 02:10:29;;;;;;;7.87;4.13;;;;;;;;;;5099424;28;20536;-85
2021/03/18 02:12:55;;;;;;;5.40;3.30;;;;;;;;;;5081979;28;20408;-86
2021/03/18 02:15:21;;;;;;;13.10;3.78;;;;;;;;;;5081745;28;20394;-86
2021/03/18 02:18:06;;;;;;;8.90;4.20;;;;;;;;;;5075880;28;20408;-86
2021/03/18 02:20:48;;;;;;;7.10;4.20;;;;;;;;;;5094072;28;20797;-86
2021/03/18 02:23:17;;;;;;;7.15;4.03;;;;;;;;;;5094376;28;20429;-85
2021/03/18 02:25:44;;;;;;;7.47;4.00;;;;;;;;;;5086145;28;20455;-85
2021/03/18 02:28:25;;;;;;;8.70;4.75;;;;;;;;;;5079353;28;20410;-86
2021/03/18 02:31:04;;;;;;;13.75;5.45;;;;;;;;;;5088835;28;20391;-86
2021/03/18 02:33:58;;;;;;;6.85;4.38;;;;;;;;;;5066698;28;20527;-86
2021/03/18 02:36:27;;;;;;;5.43;4.20;;;;;;;;;;5071819;28;20400;-85
2021/03/18 02:38:54;;;;;;;10.60;4.28;;;;;;;;;;5080791;28;20421;-85
2021/03/18 02:41:24;;;;;;;10.38;4.10;;;;;;;;;;5083900;28;20453;-86
2021/03/18 02:43:50;;;;;;;8.77;4.22;;;;;;;;;;5085730;28;20396;-85
2021/03/18 02:46:16;;;;;;;7.07;4.63;;;;;;;;;;5105273;27;20388;-85
2021/03/18 02:48:42;;;;;;;8.43;4.70;;;;;;;;;;5065802;28;20479;-85
2021/03/18 02:51:12;;;;;;;10.00;4.25;;;;;;;;;;5098771;28;20410;-85
2021/03/18 02:53:38;;;;;;;11.82;4.85;;;;;;;;;;5107253;28;20410;-85
2021/03/18 02:56:04;;;;;;;8.80;4.55;;;;;;;;;;5050698;28;20402;-85
2021/03/18 02:58:30;;;;;;;8.48;4.40;;;;;;;;;;5090562;28;20519;-85
2021/03/18 03:00:57;;;;;;;8.82;4.20;;;;;;;;;;5095558;28;20403;-85
2021/03/18 03:03:23;;;;;;;7.03;4.45;;;;;;;;;;5068173;28;20410;-85
2021/03/18 03:05:53;;;;;;;7.45;4.45;;;;;;;;;;5091038;28;20885;-85
2021/03/18 03:08:19;;;;;;;8.15;4.13;;;;;;;;;;5073183;28;20437;-85
2021/03/18 03:10:45;;;;;;;6.67;4.07;;;;;;;;;;5070668;28;20447;-85
2021/03/18 03:13:11;;;;;;;9.48;4.32;;;;;;;;;;5070929;28;20498;-85
2021/03/18 03:15:37;;;;;;;6.55;4.15;;;;;;;;;;5081496;28;20471;-85
2021/03/18 03:18:04;;;;;;;6.32;4.88;;;;;;;;;;5088521;28;20424;-85
2021/03/18 03:20:30;;;;;;;8.32;5.15;;;;;;;;;;5074206;28;20402;-85
2021/03/18 03:22:56;;;;;;;9.55;4.72;;;;;;;;;;5074299;28;20460;-85
2021/03/18 03:25:22;;;;;;;10.60;5.55;;;;;;;;;;5061507;28;20745;-85
2021/03/18 03:27:48;;;;;;;6.90;4.72;;;;;;;;;;5094380;28;20411;-86
2021/03/18 03:30:15;;;;;;;6.17;4.67;;;;;;;;;;5074333;28;20406;-85
2021/03/18 03:32:41;;;;;;;7.50;4.68;;;;;;;;;;5083274;28;20444;-85
2021/03/18 03:35:08;;;;;;;8.35;4.55;;;;;;;;;;5079474;28;20902;-85
2021/03/18 03:37:37;;;;;;;9.70;5.00;;;;;;;;;;5080796;28;20411;-85
2021/03/18 03:40:05;;;;;;;10.80;4.93;;;;;;;;;;5090680;28;20403;-85
2021/03/18 03:42:31;;;;;;;8.65;4.55;;;;;;;;;;5065847;28;20394;-85
2021/03/18 03:44:57;;;;;;;6.65;4.57;;;;;;;;;;5071809;28;20400;-85
2021/03/18 03:47:23;;;;;;;13.20;4.20;;;;;;;;;;5072324;28;20429;-85
2021/03/18 03:49:49;;;;;;;7.00;4.40;;;;;;;;;;5062131;28;20406;-85
2021/03/18 03:52:35;;;;;;;10.50;5.03;;;;;;;;;;5086022;28;20388;-85
2021/03/18 03:55:09;;;;;;;8.50;4.18;;;;;;;;;;5070393;28;20395;-85
2021/03/18 03:57:40;;;;;;;9.57;4.78;;;;;;;;;;5077336;28;20821;-85
2021/03/18 04:00:07;;;;;;;10.73;5.18;;;;;;;;;;5075841;28;20443;-85
2021/03/18 04:02:33;;;;;;;8.35;4.63;;;;;;;;;;5080196;28;20425;-86
2021/03/18 04:04:59;;;;;;;6.20;4.55;;;;;;;;;;5068561;28;20779;-85
2021/03/18 04:07:29;;;;;;;9.38;4.53;;;;;;;;;;5057380;28;20446;-86
2021/03/18 04:09:55;;;;;;;7.80;4.90;;;;;;;;;;5080139;28;20898;-85
2021/03/18 04:12:21;;;;;;;8.70;4.90;;;;;;;;;;5087339;28;20410;-85
2021/03/18 04:14:48;;;;;;;8.98;4.47;;;;;;;;;;5061236;28;20404;-85
2021/03/18 04:17:15;;;;;;;6.72;4.20;;;;;;;;;;5070703;28;20403;-85
2021/03/18 04:19:41;;;;;;;7.20;3.80;;;;;;;;;;5081032;28;20407;-85
2021/03/18 04:22:07;;;;;;;8.85;4.40;;;;;;;;;;5086642;28;20932;-85
2021/03/18 04:24:33;;;;;;;8.25;4.15;;;;;;;;;;5096132;28;20423;-85
2021/03/18 04:26:59;;;;;;;7.38;4.47;;;;;;;;;;5091586;28;20396;-85
2021/03/18 04:29:25;;;;;;;8.85;4.22;;;;;;;;;;5071514;28;20408;-86
2021/03/18 04:31:51;;;;;;;8.20;5.00;;;;;;;;;;5088954;28;20405;-86
2021/03/18 04:34:17;;;;;;;6.88;4.20;;;;;;;;;;5072349;28;20411;-85
2021/03/18 04:36:44;;;;;;;11.38;5.10;;;;;;;;;;5086875;28;20400;-86
2021/03/18 04:39:10;;;;;;;6.53;4.83;;;;;;;;;;5071795;28;20529;-85
2021/03/18 04:41:37;;;;;;;11.00;5.47;;;;;;;;;;5072014;28;20391;-86
2021/03/18 04:44:03;;;;;;;6.07;4.85;;;;;;;;;;5079672;28;20438;-86
2021/03/18 04:46:29;;;;;;;9.73;5.13;;;;;;;;;;5074869;28;20804;-85
2021/03/18 04:48:56;;;;;;;8.63;5.70;;;;;;;;;;5076990;28;20913;-85
2021/03/18 04:51:22;;;;;;;8.25;5.43;;;;;;;;;;5065213;28;20418;-85
2021/03/18 04:53:48;;;;;;;11.60;5.97;;;;;;;;;;5079412;28;20407;-86
2021/03/18 04:56:14;;;;;;;14.40;6.10;;;;;;;;;;5050155;28;20984;-85
2021/03/18 04:58:40;;;;;;;8.52;4.97;;;;;;;;;;5080517;28;20419;-85
2021/03/18 05:01:06;;;;;;;12.57;5.70;;;;;;;;;;5072870;28;20908;-85
2021/03/18 05:03:33;;;;;;;13.65;5.95;;;;;;;;;;5082124;28;20395;-85
2021/03/18 05:05:59;;;;;;;7.97;5.50;;;;;;;;;;5072303;28;20402;-85
2021/03/18 05:08:25;;;;;;;8.85;5.32;;;;;;;;;;5087529;28;20806;-85
2021/03/18 05:10:54;;;;;;;8.90;5.72;;;;;;;;;;5092144;28;20404;-85
2021/03/18 05:13:33;;;;;;;8.75;6.00;;;;;;;;;;5092480;28;20400;-85
2021/03/18 05:15:59;;;;;;;10.43;5.70;;;;;;;;;;5077679;28;20398;-85
2021/03/18 05:18:25;;;;;;;10.82;5.45;;;;;;;;;;5067922;28;20420;-85
2021/03/18 05:20:51;;;;;;;12.05;5.63;;;;;;;;;;5081760;28;20394;-85
2021/03/18 05:23:17;;;;;;;11.43;5.57;;;;;;;;;;5069724;28;20591;-85
2021/03/18 05:25:44;;;;;;;9.10;5.50;;;;;;;;;;5097049;28;20455;-85
2021/03/18 05:28:10;;;;;;;13.95;5.72;;;;;;;;;;5050825;28;20489;-85
2021/03/18 05:30:36;;;;;;;14.63;5.80;;;;;;;;;;5078055;28;20477;-85
2021/03/18 05:33:03;;;;;;;6.23;5.03;;;;;;;;;;5091393;28;20479;-84
2021/03/18 05:35:29;;;;;;;11.02;4.93;;;;;;;;;;5060780;28;20782;-85
2021/03/18 05:37:55;;;;;;;6.85;5.13;;;;;;;;;;5102884;28;20933;-84
2021/03/18 05:40:21;;;;;;;7.97;5.22;;;;;;;;;;5091591;28;20404;-85
2021/03/18 05:42:47;;;;;;;11.55;5.50;;;;;;;;;;5106201;28;20413;-84
2021/03/18 05:45:14;;;;;;;8.23;5.23;;;;;;;;;;5055925;28;20407;-84
2021/03/18 05:47:40;;;;;;;6.65;5.60;;;;;;;;;;5076977;28;20408;-85
2021/03/18 05:50:07;;;;;;;9.30;5.30;;;;;;;;;;5063484;28;20882;-85
2021/03/18 05:52:33;;;;;;;14.50;5.82;;;;;;;;;;5093244;28;20926;-85
2021/03/18 05:54:59;;;;;;;6.60;4.57;;;;;;;;;;5066073;28;20384;-85
2021/03/18 05:57:25;;;;;;;11.40;5.13;;;;;;;;;;5103807;27;20429;-84
2021/03/18 05:59:51;;;;;;;11.13;5.50;;;;;;;;;;5064519;28;20440;-85
2021/03/18 06:02:20;;;;;;;10.10;5.18;;;;;;;;;;5073793;28;20911;-85
2021/03/18 06:04:46;;;;;;;8.65;5.22;;;;;;;;;;5064050;28;20404;-84
2021/03/18 06:07:12;;;;;;;10.20;5.30;;;;;;;;;;5078336;28;20859;-84
2021/03/18 06:09:38;;;;;;;8.98;5.00;;;;;;;;;;5091422;28;20456;-85
2021/03/18 06:12:04;;;;;;;10.18;5.03;;;;;;;;;;5073628;28;20396;-85
2021/03/18 06:14:30;;;;;;;26.33;10.40;;;;;;;;;;5072519;28;20917;-84
2021/03/18 06:16:57;;;;;;;39.47;14.98;;;;;;;;;;5084502;28;20892;-85
2021/03/18 06:19:23;;;;;;;17.67;9.68;;;;;;;;;;5092450;28;20412;-86
2021/03/18 06:21:53;;;;;;;17.15;6.82;;;;;;;;;;5055106;28;20456;-85
2021/03/18 06:24:19;;;;;;;10.13;5.97;;;;;;;;;;5067953;28;20416;-85
2021/03/18 06:26:45;;;;;;;13.47;6.27;;;;;;;;;;5107350;27;20885;-85
2021/03/18 06:29:30;;;;;;;10.07;5.82;;;;;;;;;;5093658;28;20397;-86
2021/03/18 06:31:57;;;;;;;8.85;6.30;;;;;;;;;;5078289;28;20474;-85
2021/03/18 06:34:41;;;;;;;7.22;5.82;;;;;;;;;;5080100;28;20426;-85
2021/03/18 06:37:27;;;;;;;10.40;6.50;;;;;;;;;;5093016;28;20400;-85
2021/03/18 06:39:53;;;;;;;10.02;6.70;;;;;;;;;;5066967;28;20398;-85
2021/03/18 06:42:19;;;;;;;9.97;6.30;;;;;;;;;;5100211;28;20396;-85
2021/03/18 06:44:52;;;;;;;12.90;7.70;;;;;;;;;;5082877;28;20431;-85
2021/03/18 06:47:22;;;;;;;14.85;8.88;;;;;;;;;;5082291;28;20762;-86
2021/03/18 06:49:49;;;;;;;13.68;8.02;;;;;;;;;;5075043;28;20398;-87
2021/03/18 06:52:15;;;;;;;11.65;7.50;;;;;;;;;;5080759;28;20401;-85
2021/03/18 06:54:44;;;;;;;16.02;9.30;;;;;;;;;;5107126;28;20421;-86
2021/03/18 06:57:11;;;;;;;15.00;8.63;;;;;;;;;;5069827;28;20404;-85
2021/03/18 06:59:43;;;;;;;13.48;9.23;;;;;;;;;;5103228;28;20402;-85
2021/03/18 07:02:10;;;;;;;12.15;7.30;;;;;;;;;;5092863;28;20470;-85
2021/03/18 07:04:42;;;;;;;10.43;6.22;;;;;;;;;;5091815;28;20957;-86
2021/03/18 07:07:11;;;;;;;13.13;7.10;;;;;;;;;;5078386;28;20897;-85
2021/03/18 07:09:39;;;;;;;13.27;7.10;;;;;;;;;;5090475;28;20912;-85
2021/03/18 07:12:12;;;;;;;10.45;6.97;;;;;;;;;;5107254;28;20432;-87
2021/03/18 07:14:47;;;;;;;9.98;7.78;;;;;;;;;;5071686;28;20878;-87
2021/03/18 07:17:50;;;;;;;10.60;6.85;;;;;;;;;;5085785;28;20405;-86
2021/03/18 07:20:25;;;;;;;12.65;7.38;;;;;;;;;;5093072;28;20396;-86
2021/03/18 07:23:00;;;;;;;12.32;7.65;;;;;;;;;;5096581;28;20409;-87
2021/03/18 07:25:35;;;;;;;9.23;6.93;;;;;;;;;;5089755;28;20412;-87
2021/03/18 07:28:01;;;;;;;12.20;6.50;;;;;;;;;;5079080;28;20391;-87
2021/03/18 07:30:34;;;;;;;8.77;6.75;;;;;;;;;;5093250;28;20406;-87
2021/03/18 07:33:00;;;;;;;10.90;6.15;;;;;;;;;;5098182;28;20924;-87
2021/03/18 07:35:26;;;;;;;10.37;6.20;;;;;;;;;;5097676;27;21011;-87
2021/03/18 07:38:14;;;;;;;8.77;6.45;;;;;;;;;;5087587;28;20414;-87
2021/03/18 07:41:11;;;;;;;10.63;6.57;;;;;;;;;;5084587;28;20402;-87
2021/03/18 07:43:52;;;;;;;11.50;6.07;;;;;;;;;;5090731;28;20407;-87
2021/03/18 07:46:19;;;;;;;8.88;5.95;;;;;;;;;;5069912;28;20403;-87
2021/03/18 07:49:02;;;;;;;12.77;6.10;;;;;;;;;;5072708;28;20394;-87
2021/03/18 07:51:28;;;;;;;9.43;5.57;;;;;;;;;;5066260;28;20398;-88
2021/03/18 07:54:06;;;;;;;10.45;5.82;;;;;;;;;;5086726;28;20412;-87
2021/03/18 07:56:32;;;;;;;10.95;5.82;;;;;;;;;;5099320;28;20395;-87
2021/03/18 07:58:58;;;;;;;7.40;5.25;;;;;;;;;;5072626;28;20436;-87
2021/03/18 08:01:34;;;;;;;7.85;5.00;;;;;;;;;;5070980;28;20394;-88
2021/03/18 08:04:04;;;;;;;6.23;5.20;;;;;;;;;;5064616;28;20548;-87
2021/03/18 08:06:40;;;;;;;8.40;4.40;;;;;;;;;;5078952;28;20413;-88
2021/03/18 08:09:09;;;;;;;9.73;5.28;;;;;;;;;;5087485;28;20845;-88
2021/03/18 08:11:35;;;;;;;5.65;4.35;;;;;;;;;;5091989;28;20472;-88
2021/03/18 08:14:07;;;;;;;8.30;4.30;;;;;;;;;;5114645;22;20419;-86
2021/03/18 08:16:33;;;;;;;7.20;4.30;;;;;;;;;;5052047;28;20402;-85
2021/03/18 08:18:59;;;;;;;9.48;5.10;;;;;;;;;;5051717;28;20416;-86
2021/03/18 08:21:41;;;;;;;8.80;5.95;;;;;;;;;;5036517;28;20755;-85
2021/03/18 08:24:08;;;;;;;9.52;4.95;;;;;;;;;;5071068;28;20898;-87
2021/03/18 08:26:50;;;;;;;11.48;4.88;;;;;;;;;;5051020;28;20895;-88
2021/03/18 08:29:23;;;;;;;8.17;4.90;;;;;;;;;;5050045;28;20414;-88
2021/03/18 08:31:53;;;;;;;11.55;7.25;;;;;;;;;;5034298;28;20402;-88
2021/03/18 08:34:38;;;;;;;9.73;5.07;;;;;;;;;;5052426;28;20407;-88
2021/03/18 08:37:04;;;;;;;5.93;4.05;;;;;;;;;;5051975;28;20408;-86
2021/03/18 08:39:44;;;;;;;4.65;3.72;;;;;;;;;;5052823;28;20431;-85
2021/03/18 08:42:28;;;;;;;7.60;4.95;;;;;;;;;;5053157;28;20422;-86
2021/03/18 08:44:58;;;;;;;7.38;4.53;;;;;;;;;;5051899;28;20458;-86
2021/03/18 08:47:43;;;;;;;5.90;4.00;;;;;;;;;;5052981;28;20402;-86
2021/03/18 08:50:13;;;;;;;7.80;4.03;;;;;;;;;;5036888;28;20392;-86
2021/03/18 08:52:40;;;;;;;7.95;4.03;;;;;;;;;;5052883;28;20434;-85
2021/03/18 08:55:07;;;;;;;6.30;4.23;;;;;;;;;;5033561;28;20442;-85
2021/03/18 08:57:33;;;;;;;6.40;4.50;;;;;;;;;;5050254;28;20961;-86
2021/03/18 09:00:00;;;;;;;6.47;3.60;;;;;;;;;;5051649;28;20415;-86
2021/03/18 09:02:34;;;;;;;8.00;3.85;;;;;;;;;;5052961;28;20394;-86
2021/03/18 09:05:01;;;;;;;5.22;3.80;;;;;;;;;;5040467;28;20450;-86
2021/03/18 09:07:27;;;;;;;5.65;3.78;;;;;;;;;;5055384;28;20391;-86
2021/03/18 09:09:59;;;;;;;5.50;3.47;;;;;;;;;;5073009;28;20400;-86
2021/03/18 09:12:25;;;;;;;6.85;3.90;;;;;;;;;;5073626;28;20471;-88
2021/03/18 09:14:51;;;;;;;6.32;3.65;;;;;;;;;;5038550;28;20420;-88
2021/03/18 09:17:17;;;;;;;7.20;3.85;;;;;;;;;;5055902;28;20420;-85
2021/03/18 09:19:44;;;;;;;7.10;3.90;;;;;;;;;;5056698;28;20391;-86
2021/03/18 09:22:10;;;;;;;6.10;3.53;;;;;;;;;;5073898;28;20392;-86
2021/03/18 09:24:36;;;;;;;5.32;3.88;;;;;;;;;;5055869;28;20886;-85
2021/03/18 09:27:06;;;;;;;12.80;3.67;;;;;;;;;;5039232;28;20436;-86
2021/03/18 09:29:32;;;;;;;5.47;3.50;;;;;;;;;;5055459;28;20427;-87
2021/03/18 09:32:05;;;;;;;3.97;3.60;;;;;;;;;;5038975;28;20396;-86
2021/03/18 09:34:34;;;;;;;5.60;3.80;;;;;;;;;;5054982;28;20404;-86
2021/03/18 09:37:00;;;;;;;7.15;3.35;;;;;;;;;;5073727;28;20453;-86
2021/03/18 09:39:26;;;;;;;5.55;3.33;;;;;;;;;;5065930;28;20410;-86
2021/03/18 09:41:53;;;;;;;6.73;3.77;;;;;;;;;;5038504;28;20926;-86
2021/03/18 09:44:22;;;;;;;5.32;3.42;;;;;;;;;;5053530;28;20411;-86
2021/03/18 09:46:55;;;;;;;6.88;3.40;;;;;;;;;;5055783;28;20403;-86
2021/03/18 09:49:31;;;;;;;4.40;3.30;;;;;;;;;;5073279;28;20419;-86
2021/03/18 09:51:58;;;;;;;5.00;3.45;;;;;;;;;;5055808;28;20891;-87
2021/03/18 09:54:24;;;;;;;4.43;3.40;;;;;;;;;;5073282;28;20395;-87
2021/03/18 09:56:53;;;;;;;4.80;3.50;;;;;;;;;;5072150;28;20439;-86
2021/03/18 09:59:22;;;;;;;5.68;3.72;;;;;;;;;;5039454;28;20404;-86
2021/03/18 10:02:01;;;;;;;5.15;4.13;;;;;;;;;;5055969;28;20392;-87
2021/03/18 10:04:27;;;;;;;6.57;3.75;;;;;;;;;;5056094;28;20412;-86
2021/03/18 10:06:53;;;;;;;5.15;4.05;;;;;;;;;;5055287;28;20407;-86
2021/03/18 10:09:27;;;;;;;6.68;3.75;;;;;;;;;;5056123;28;20462;-87
2021/03/18 10:11:57;;;;;;;4.65;3.45;;;;;;;;;;5049679;28;20879;-87
2021/03/18 10:14:24;;;;;;;4.82;3.10;;;;;;;;;;5072406;28;20430;-86
2021/03/18 10:16:50;;;;;;;5.23;3.50;;;;;;;;;;5054844;28;20498;-86
2021/03/18 10:19:20;;;;;;;4.93;3.20;;;;;;;;;;5070237;28;20870;-86
2021/03/18 10:21:46;;;;;;;4.50;3.13;;;;;;;;;;5055484;28;20427;-87
2021/03/18 10:27:16;;;;;;;5.67;3.03;;;;;;;;;;5070219;28;20430;-86
2021/03/18 10:29:44;;;;;;;6.47;3.10;;;;;;;;;;5072886;28;20762;-86
2021/03/18 10:32:11;;;;;;;4.70;3.47;;;;;;;;;;5035067;28;20408;-87
2021/03/18 10:34:38;;;;;;;5.45;4.22;;;;;;;;;;5064982;28;20490;-86
2021/03/18 10:37:03;;;;;;;4.35;3.70;;;;;;;;;;5054674;28;20395;-86
2021/03/18 10:39:29;;;;;;;4.97;3.30;;;;;;;;;;5038480;28;20407;-86
2021/03/18 10:41:56;;;;;;;4.78;3.55;;;;;;;;;;5037858;28;20408;-86
2021/03/18 10:44:22;;;;;;;6.28;3.92;;;;;;;;;;5035043;28;20885;-86
2021/03/18 10:46:48;;;;;;;6.13;3.60;;;;;;;;;;5052696;28;20408;-86
2021/03/18 10:49:15;;;;;;;4.47;3.40;;;;;;;;;;5054836;28;20423;-85
2021/03/18 10:51:42;;;;;;;10.25;4.10;;;;;;;;;;5038046;28;20873;-85
2021/03/18 10:54:08;;;;;;;4.28;3.20;;;;;;;;;;5070788;28;20499;-85
2021/03/18 10:56:33;;;;;;;6.15;3.75;;;;;;;;;;5072193;28;20483;-85
2021/03/18 10:59:18;;;;;;;3.88;3.20;;;;;;;;;;5034255;28;20409;-85
2021/03/18 11:01:44;;;;;;;6.80;3.05;;;;;;;;;;5069978;28;20449;-85
2021/03/18 11:04:12;;;;;;;5.63;3.45;;;;;;;;;;5054505;28;20450;-85
2021/03/18 11:06:51;;;;;;;8.07;3.47;;;;;;;;;;5037284;28;20518;-85
2021/03/18 11:09:17;;;;;;;6.43;3.85;;;;;;;;;;5034883;28;20447;-85
2021/03/18 11:11:53;;;;;;;4.63;3.53;;;;;;;;;;5053223;28;20399;-87
2021/03/18 11:14:19;;;;;;;4.47;3.33;;;;;;;;;;5071705;28;20443;-87
2021/03/18 11:16:44;;;;;;;7.40;3.53;;;;;;;;;;5069879;28;20469;-87
2021/03/18 11:19:11;;;;;;;5.93;3.08;;;;;;;;;;5054333;28;20404;-87
2021/03/18 11:21:38;;;;;;;4.93;3.15;;;;;;;;;;5071279;28;20897;-88
2021/03/18 11:24:08;;;;;;;5.15;3.08;;;;;;;;;;5049596;28;20415;-85
2021/03/18 11:26:34;;;;;;;4.43;2.95;;;;;;;;;;5033127;28;20455;-85
2021/03/18 11:29:00;;;;;;;6.60;2.90;;;;;;;;;;5035223;28;20912;-86
2021/03/18 11:31:27;;;;;;;4.22;2.47;;;;;;;;;;5036189;28;20410;-86
2021/03/18 11:33:55;;;;;;;3.13;2.70;;;;;;;;;;5053023;28;21351;-86
2021/03/18 11:36:21;;;;;;;4.88;3.22;;;;;;;;;;5053790;28;20406;-86
2021/03/18 11:38:47;;;;;;;5.70;2.97;;;;;;;;;;5036432;28;20510;-86
2021/03/18 11:41:13;;;;;;;4.97;2.70;;;;;;;;;;5036568;28;20412;-86
2021/03/18 11:43:39;;;;;;;4.03;2.30;;;;;;;;;;5053517;28;20406;-86
2021/03/18 11:46:05;;;;;;;2.40;2.00;;;;;;;;;;5045721;28;20392;-86
2021/03/18 11:48:31;;;;;;;4.93;2.30;;;;;;;;;;5054022;28;20415;-86
2021/03/18 11:50:57;;;;;;;4.38;2.28;;;;;;;;;;5053333;28;20984;-86
2021/03/18 11:53:23;;;;;;;3.92;2.33;;;;;;;;;;5036533;28;20454;-86
2021/03/18 11:55:49;;;;;;;3.80;2.10;;;;;;;;;;5052167;28;20423;-86
2021/03/18 11:58:15;;;;;;;3.13;2.00;;;;;;;;;;5071564;28;20559;-86
2021/03/18 12:00:44;;;;;;;3.97;2.35;;;;;;;;;;5071180;28;20487;-86
2021/03/18 12:03:15;;;;;;;2.67;2.38;;;;;;;;;;5052901;28;20407;-86
2021/03/18 12:05:42;;;;;;;3.90;2.40;;;;;;;;;;5051464;28;20392;-86
2021/03/18 12:08:08;;;;;;;2.42;2.17;;;;;;;;;;5046449;28;20469;-87
2021/03/18 12:10:34;;;;;;;2.78;1.92;;;;;;;;;;5036744;28;20396;-86
2021/03/18 12:13:00;;;;;;;3.13;2.10;;;;;;;;;;5033321;28;20412;-85
2021/03/18 12:15:26;;;;;;;3.17;2.15;;;;;;;;;;5034864;28;20510;-85
2021/03/18 12:17:52;;;;;;;3.00;1.75;;;;;;;;;;5050863;28;20403;-85
2021/03/18 12:20:28;;;;;;;1.90;1.75;;;;;;;;;;5040162;28;20396;-86
2021/03/18 12:22:55;;;;;;;3.53;1.95;;;;;;;;;;5035654;28;20926;-86
2021/03/18 12:25:21;;;;;;;3.08;1.90;;;;;;;;;;5070039;28;20396;-85
2021/03/18 12:27:47;;;;;;;3.15;1.40;;;;;;;;;;5052220;28;20420;-86
2021/03/18 12:30:14;;;;;;;2.03;1.85;;;;;;;;;;5044815;28;20815;-86
2021/03/18 12:32:40;;;;;;;1.55;1.45;;;;;;;;;;5053363;28;20427;-86
2021/03/18 12:35:07;;;;;;;3.20;1.60;;;;;;;;;;5055499;28;20395;-86
2021/03/18 12:37:33;;;;;;;3.05;1.80;;;;;;;;;;5056803;28;20983;-86
2021/03/18 12:40:00;;;;;;;2.75;1.77;;;;;;;;;;5058879;28;20421;-85
2021/03/18 12:42:26;;;;;;;3.58;1.70;;;;;;;;;;5040784;28;20403;-87
2021/03/18 12:44:51;;;;;;;3.53;1.88;;;;;;;;;;5039646;28;20459;-86
2021/03/18 12:47:38;;;;;;;2.67;2.45;;;;;;;;;;5040479;28;20419;-86
2021/03/18 12:50:05;;;;;;;2.37;1.73;;;;;;;;;;5072511;28;20486;-85
2021/03/18 12:52:37;;;;;;;3.50;2.05;;;;;;;;;;5055751;28;20426;-84
2021/03/18 12:55:09;;;;;;;3.42;1.83;;;;;;;;;;5056673;28;20817;-85
2021/03/18 12:57:37;;;;;;;1.92;1.70;;;;;;;;;;5056095;28;20400;-85
2021/03/18 13:00:07;;;;;;;1.70;1.40;;;;;;;;;;5055276;28;21021;-84
2021/03/18 13:02:33;;;;;;;2.50;1.60;;;;;;;;;;5059503;28;20391;-85
2021/03/18 13:05:01;;;;;;;2.45;1.60;;;;;;;;;;5060011;28;20943;-85
2021/03/18 13:07:30;;;;;;;2.13;1.45;;;;;;;;;;5074920;28;20415;-85
2021/03/18 13:09:56;;;;;;;2.97;1.73;;;;;;;;;;5055860;28;20416;-85
2021/03/18 13:12:22;;;;;;;5.30;1.90;;;;;;;;;;5070556;28;20498;-86
2021/03/18 13:14:48;;;;;;;1.98;1.60;;;;;;;;;;5054227;28;20415;-85
2021/03/18 13:17:14;;;;;;;4.30;1.70;;;;;;;;;;5052815;28;20472;-86
2021/03/18 13:19:40;;;;;;;3.37;1.40;;;;;;;;;;5052547;28;20578;-86
2021/03/18 13:22:06;;;;;;;1.70;1.60;;;;;;;;;;5055010;28;20498;-85
2021/03/18 13:24:32;;;;;;;1.98;1.58;;;;;;;;;;5054004;28;20403;-85
2021/03/18 13:26:58;;;;;;;2.35;1.75;;;;;;;;;;5029318;28;20457;-86
2021/03/18 13:29:24;;;;;;;3.03;1.63;;;;;;;;;;5050647;28;20967;-85
2021/03/18 13:31:50;;;;;;;3.05;1.80;;;;;;;;;;5047603;28;20888;-86
2021/03/18 13:34:16;;;;;;;3.17;1.80;;;;;;;;;;5054048;28;20496;-86
2021/03/18 13:36:42;;;;;;;2.13;1.60;;;;;;;;;;5054820;28;20392;-86
2021/03/18 13:39:08;;;;;;;2.25;1.90;;;;;;;;;;5054492;28;20411;-85
2021/03/18 13:41:34;;;;;;;4.00;2.03;;;;;;;;;;5048955;28;20395;-85
2021/03/18 13:44:00;;;;;;;3.65;1.92;;;;;;;;;;5073934;28;20426;-86
2021/03/18 13:46:26;;;;;;;3.60;1.90;;;;;;;;;;5053433;28;20396;-85
2021/03/18 13:48:52;;;;;;;1.77;1.60;;;;;;;;;;5077847;28;20525;-85
2021/03/18 13:51:18;;;;;;;6.35;2.13;;;;;;;;;;5083387;28;20496;-88
2021/03/18 13:53:45;;;;;;;1.73;1.52;;;;;;;;;;5062106;28;20434;-89
2021/03/18 13:56:10;;;;;;;3.70;1.67;;;;;;;;;;5042025;28;20389;-87
2021/03/18 13:58:36;;;;;;;2.47;1.65;;;;;;;;;;5073672;28;20395;-87
2021/03/18 14:01:03;;;;;;;2.95;1.85;;;;;;;;;;5034022;28;20396;-87
2021/03/18 14:03:29;;;;;;;1.95;1.83;;;;;;;;;;5050813;28;20913;-86
2021/03/18 14:05:55;;;;;;;3.40;1.42;;;;;;;;;;5050190;28;20400;-86
2021/03/18 14:08:21;;;;;;;3.25;1.95;;;;;;;;;;5042245;28;20436;-86
2021/03/18 14:10:47;;;;;;;4.10;2.20;;;;;;;;;;5070665;28;20392;-86
2021/03/18 14:13:13;;;;;;;2.65;2.42;;;;;;;;;;5052091;28;21899;-85
2021/03/18 14:15:40;;;;;;;3.70;2.15;;;;;;;;;;5038725;28;20498;-86
2021/03/18 14:18:06;;;;;;;3.38;1.98;;;;;;;;;;5053931;28;20902;-87
2021/03/18 14:20:32;;;;;;;3.47;2.10;;;;;;;;;;5038355;28;20395;-86
2021/03/18 14:22:58;;;;;;;3.13;2.08;;;;;;;;;;5053957;28;20396;-86
2021/03/18 14:25:24;;;;;;;2.90;2.20;;;;;;;;;;5050820;28;20423;-87
2021/03/18 14:27:53;;;;;;;5.03;2.42;;;;;;;;;;5049667;28;20497;-88
2021/03/18 14:30:19;;;;;;;3.13;2.23;;;;;;;;;;5067775;28;20811;-86
2021/03/18 14:32:45;;;;;;;2.30;2.08;;;;;;;;;;5050226;28;20749;-86
2021/03/18 14:35:11;;;;;;;3.97;2.10;;;;;;;;;;5071900;28;20461;-86
2021/03/18 14:37:37;;;;;;;2.35;2.20;;;;;;;;;;5049734;28;20442;-88
2021/03/18 14:40:07;;;;;;;4.25;2.10;;;;;;;;;;5052096;28;20400;-96
2021/03/18 14:42:33;;;;;;;3.97;2.38;;;;;;;;;;5035446;28;20730;-86
2021/03/18 14:44:59;;;;;;;2.55;1.98;;;;;;;;;;5053016;28;20419;-86
2021/03/18 14:47:25;;;;;;;2.45;1.98;;;;;;;;;;5033684;28;20404;-85
2021/03/18 14:49:51;;;;;;;2.58;1.70;;;;;;;;;;5032621;28;20434;-85